Flight Track Log - Related Links

Times and Time Zones

All times are in EDT time to prevent confusion due to time zone crossing. See the EJA396 flight status page for this flight to view local times or setup timezone preferences in your user account.

Time Position Orientation Groundspeed Altitude Reporting Facility
EDT Latitude Longitude Course Direction KTS MPH feet Rate Location/Type
Tue 04:15:00 PM 18.6770 -68.4661 325° Northwest  Level FlightAware Approximate
Tue 04:16:00 PM 18.7058 -68.4877 325° Northwest  Level FlightAware Approximate
Tue 04:17:00 PM 18.7347 -68.5094 325° Northwest  Level FlightAware Approximate
Tue 04:18:00 PM 18.7636 -68.5310 325° Northwest  Level FlightAware Approximate
Tue 04:19:00 PM 18.7915 -68.5540 322° Northwest  Level FlightAware Approximate
Tue 04:20:00 PM 18.8193 -68.5772 322° Northwest  Level FlightAware Approximate
Tue 04:21:00 PM 18.8471 -68.6003 322° Northwest  Level FlightAware Approximate
Tue 04:22:00 PM 18.8752 -68.6230 325° Northwest  Level FlightAware Approximate
Tue 04:23:00 PM 18.9041 -68.6447 325° Northwest  Level FlightAware Approximate
Tue 04:24:00 PM 18.9329 -68.6663 325° Northwest  Level FlightAware Approximate
Tue 04:25:00 PM 18.9618 -68.6880 325° Northwest  Level FlightAware Approximate
Tue 04:26:00 PM 18.9907 -68.7097 325° Northwest  Level FlightAware Approximate
Tue 04:27:00 PM 19.0185 -68.7328 320° Northwest  Level FlightAware Approximate
Tue 04:28:00 PM 19.0457 -68.7567 320° Northwest  Level FlightAware Approximate
Tue 04:29:00 PM 19.0730 -68.7805 320° Northwest  Level FlightAware Approximate
Tue 04:30:00 PM 19.1331 -68.8735 304° West  Level Estimated
Tue 04:31:00 PM 19.1931 -68.9665 304° West  Level Estimated
Tue 04:31:06 PM 19.9794 -70.4386 304° West 435 501 40,000  Level Miami Center
Tue 04:32:00 PM 19.2531 -69.0595 304° West  Level Estimated
Tue 04:32:06 PM 20.0461 -70.5392 305° West 429 494 40,000  Level Miami Center
Tue 04:33:00 PM 19.3131 -69.1527 304° West  Level Estimated
Tue 04:33:06 PM 20.1086 -70.6422 303° West 423 487 40,000  Level Miami Center
Tue 04:34:00 PM 19.3729 -69.2459 304° West  Level Estimated
Tue 04:34:06 PM 20.1750 -70.7431 305° West 423 487 40,000  Level Miami Center
Tue 04:35:00 PM 19.4328 -69.3392 304° West  Level Estimated
Tue 04:35:18 PM 20.2394 -70.8461 304° West 423 487 40,000  Level Miami Center
Tue 04:36:00 PM 19.4926 -69.4325 304° West  Level Estimated
Tue 04:36:18 PM 20.3169 -70.9664 305° West 423 487 40,000  Level Miami Center
Tue 04:37:18 PM 20.3814 -71.0719 303° West 423 487 40,000  Level Miami Center
Tue 04:38:18 PM 20.4478 -71.1731 305° West 423 487 40,000  Level Miami Center
Tue 04:39:18 PM 20.5119 -71.2744 304° West 423 487 40,000  Level Miami Center
Tue 04:40:18 PM 20.5739 -71.3781 303° West 423 487 40,000  Level Miami Center
Tue 04:41:18 PM 20.6400 -71.4797 305° West 423 487 40,000  Level Miami Center
Tue 04:42:18 PM 20.6953 -71.5728 302° West 423 487 40,000  Level Miami Center
Tue 04:43:18 PM 20.7614 -71.6767 304° West 423 487 40,000  Level Miami Center
Tue 04:44:18 PM 20.8253 -71.7806 303° West 423 487 40,000  Level Miami Center
Tue 04:45:18 PM 20.8892 -71.8825 304° West 423 487 40,000  Level Miami Center
Tue 04:46:18 PM 20.9531 -71.9892 303° West 423 487 40,000  Level Miami Center
Tue 04:47:18 PM 21.0189 -72.0911 305° West 423 487 40,000  Level Miami Center
Tue 04:48:18 PM 21.0803 -72.1933 303° West 423 487 40,000  Level Miami Center
Tue 04:49:18 PM 21.1461 -72.3000 304° West 423 487 40,000  Level Miami Center
Tue 04:50:18 PM 21.2117 -72.4047 304° West 423 487 40,000  Level Miami Center
Tue 04:51:18 PM 21.2733 -72.5094 302° West 423 487 40,000  Level Miami Center
Tue 04:52:18 PM 21.3386 -72.6097 305° West 423 487 40,000  Level Miami Center
Tue 04:53:18 PM 21.4019 -72.7169 302° West 423 487 40,000  Level Miami Center
Tue 04:54:18 PM 21.4633 -72.8200 303° West 423 487 40,000  Level Miami Center
Tue 04:55:18 PM 21.5264 -72.9250 303° West 423 487 40,000  Level Miami Center
Tue 04:56:18 PM 21.5897 -73.0303 303° West 423 487 40,000  Level Miami Center
Tue 04:57:18 PM 21.6550 -73.1356 304° West 423 487 40,000  Level Miami Center
Tue 04:58:18 PM 21.7178 -73.2367 304° West 423 487 40,000  Level Miami Center
Tue 04:59:18 PM 21.7789 -73.3422 302° West 423 487 40,000  Level Miami Center
Tue 05:00:18 PM 21.8439 -73.4500 303° West 423 487 40,000  Level Miami Center
Tue 05:01:18 PM 21.9089 -73.5536 304° West 423 487 40,000  Level Miami Center
Tue 05:02:18 PM 21.9694 -73.6617 301° West 423 487 40,000  Level Miami Center
Tue 05:03:18 PM 22.0367 -73.7789 302° West 423 487 40,000  Level Miami Center
Tue 05:04:18 PM 22.1014 -73.8847 303° West 423 487 40,000  Level Miami Center
Tue 05:05:18 PM 22.1642 -73.9933 302° West 423 487 40,000  Level Miami Center
Tue 05:06:18 PM 22.2244 -74.0953 303° West 423 487 40,000  Level Miami Center
Tue 05:07:18 PM 22.2889 -74.2014 303° West 423 487 40,000  Level Miami Center
Tue 05:08:18 PM 22.3514 -74.3058 303° West 423 487 40,000  Level Miami Center
Tue 05:09:18 PM 22.4139 -74.4147 302° West 423 487 40,000  Level Miami Center
Tue 05:10:18 PM 22.4781 -74.5169 304° West 423 487 40,000  Level Miami Center
Tue 05:11:18 PM 22.5381 -74.6258 301° West 423 487 40,000  Level Miami Center
Tue 05:12:18 PM 22.6003 -74.7328 302° West 423 487 40,000  Level Miami Center
Tue 05:13:18 PM 22.6622 -74.8353 303° West 423 487 40,000  Level Miami Center
Tue 05:14:18 PM 22.7222 -74.9425 301° West 423 487 40,000  Level Miami Center
Tue 05:15:18 PM 22.7861 -75.0497 303° West 423 487 40,000  Level Miami Center
Tue 05:16:18 PM 22.8481 -75.1547 303° West 423 487 40,000  Level Miami Center
Tue 05:17:18 PM 22.9097 -75.2578 303° West 423 487 40,000  Level Miami Center
Tue 05:18:18 PM 22.9714 -75.3653 302° West 423 487 40,000  Level Miami Center
Tue 05:19:18 PM 23.0331 -75.4728 302° West 423 487 40,000  Level Miami Center
Tue 05:20:18 PM 23.0967 -75.5806 303° West 423 487 40,000  Level Miami Center
Tue 05:21:18 PM 23.1561 -75.6861 302° West 423 487 40,000  Level Miami Center
Tue 05:22:18 PM 23.2111 -75.7828 302° West 423 487 40,000  Level Miami Center
Tue 05:23:18 PM 23.2703 -75.8908 301° West 423 487 40,000  Level Miami Center
Tue 05:24:18 PM 23.3336 -75.9989 303° West 423 487 40,000  Level Miami Center
Tue 05:25:18 PM 23.3969 -76.1072 303° West 423 487 40,000  Level Miami Center
Tue 05:26:18 PM 23.4603 -76.2156 303° West 423 487 40,000  Level Miami Center
Tue 05:27:18 PM 23.5211 -76.3219 302° West 423 487 40,000  Level Miami Center
Tue 05:28:18 PM 23.5842 -76.4303 302° West 423 487 40,000  Level Miami Center
Tue 05:29:18 PM 23.6472 -76.5414 302° West 423 487 40,000  Level Miami Center
Tue 05:30:18 PM 23.7058 -76.6500 301° West 423 487 40,000  Level Miami Center
Tue 05:31:18 PM 23.7689 -76.7589 302° West 423 487 40,000  Level Miami Center
Tue 05:32:18 PM 23.8314 -76.8725 301° West 423 487 40,000  Level Miami Center
Tue 05:33:18 PM 23.8961 -76.9769 304° West 423 487 40,000 -50 Level Miami Center
Tue 05:34:18 PM 23.9567 -77.0886 301° West 423 487 39,900 -450 Descending Miami Center
Tue 05:35:18 PM 24.0172 -77.2025 300° West 429 494 39,100 -900 Descending Miami Center
Tue 05:36:18 PM 24.0858 -77.3256 301° West 429 494 38,100 -1,000 Descending Miami Center
Tue 05:37:18 PM 24.1481 -77.4350 302° West 424 488 37,100 -1,000 Descending Miami Center
Tue 05:38:18 PM 24.2125 -77.5517 301° West 429 494 36,100 -550 Descending Miami Center
Tue 05:39:18 PM 24.2767 -77.6703 301° West 442 509 36,000 -50 Descending Miami Center
Tue 05:40:18 PM 24.3450 -77.7850 303° West 449 517 36,000  Level Miami Center
Tue 05:41:18 PM 24.4194 -77.9019 305° West 454 522 36,000  Level Miami Center
Tue 05:42:18 PM 24.4894 -78.0144 304° West 459 528 36,000  Level Miami Center
Tue 05:43:18 PM 24.5619 -78.1269 305° West 464 534 36,000  Level Miami Center
Tue 05:44:18 PM 24.6319 -78.2375 305° West 459 528 36,000  Level Miami Center
Tue 05:45:18 PM 24.7081 -78.3481 307° West 453 521 36,000  Level Miami Center
Tue 05:46:18 PM 24.7739 -78.4608 303° West 446 513 36,000 -400 Level Miami Center
Tue 05:47:18 PM 24.8458 -78.5742 305° West 446 513 35,200 -1,350 Descending Miami Center
Tue 05:48:18 PM 24.9092 -78.6942 300° West 446 513 33,300 -2,100 Descending Miami Center
Tue 05:49:18 PM 24.9681 -78.8164 298° West 446 513 31,000 -2,200 Descending Miami Center
Tue 05:50:18 PM 25.0106 -78.9158 295° West 446 513 28,900 -2,500 Descending Miami Center
Tue 05:51:18 PM 25.0778 -79.0500 299° West 453 521 26,000 -2,800 Descending Miami Center
Tue 05:52:18 PM 25.1344 -79.1681 298° West 453 521 23,300 -2,500 Descending Miami Center
Tue 05:53:18 PM 25.1869 -79.2861 296° West 441 507 21,000 -2,250 Descending Miami Center
Tue 05:54:18 PM 25.2394 -79.3950 298° West 422 486 18,800 -2,274 Descending Miami Center
Tue 05:55:22 PM 25.2914 -79.5203 295° West 370 426 16,300 -2,150 Descending Miami Center
Tue 05:56:18 PM 25.3297 -79.5947 300° West 376 433 14,500 -2,017 Descending Miami Center
Tue 05:57:18 PM 25.3761 -79.6922 298° West 365 420 12,400 -1,250 Descending Miami Center
Tue 05:58:18 PM 25.4264 -79.7808 302° West 353 406 12,000 -450 Descending Miami Center
Tue 05:59:18 PM 25.4833 -79.8675 306° West 348 400 11,500 -900 Descending Miami Center
Tue 06:00:18 PM 25.5400 -79.9517 307° West 348 400 10,200 -1,200 Descending Miami Center
Tue 06:01:18 PM 25.5925 -80.0336 305° West 336 387 9,100 -600 Descending Miami Center
Tue 06:02:18 PM 25.6472 -80.1089 309° West 331 381 9,000 -67 Descending Miami Center
Tue 06:02:48 PM 25.6928 -80.1378 330° Northwest 292 336 9,000  Level Miami Center
Tue 06:03:18 PM 25.7239 -80.1478 344° North 308 354 9,000 -197 Level Miami Center
Tue 06:03:49 PM 25.7583 -80.1833 317° Northwest 281 323 8,800 -652 Descending Miami Center
Tue 06:04:50 PM 25.8136 -80.2425 316° Northwest 279 321 8,000 -938 Descending Miami Center
Tue 06:05:57 PM 25.8492 -80.3314 294° West 241 277 6,800 -1,500 Descending Miami Center
Tue 06:06:58 PM 25.8703 -80.3989 289° West 225 259 4,800 -1,377 Descending Miami Center
Tue 06:07:59 PM 25.8625 -80.4633 262° West 191 220 4,000 -787 Descending Miami Center
Tue 06:09:00 PM 25.8206 -80.4689 187° South 197 227 3,200 -1,033 Descending Miami Center
Tue 06:10:01 PM 25.8053 -80.4156 108° East 170 196 1,900 -984 Descending Miami Center
Tue 06:11:02 PM 25.7981 -80.3644 99° East 150 173 1,200 -724 Descending Miami Center
Tue 06:11:57 PM 25.8011 -80.3253 85° East 121 139 500 -764 Descending Miami Center
Tue 06:13:00 PM 25.7954 -80.2901 77° East  Level Estimated
Tue 06:20:00 PM 25.7954 -80.2901 77° East  Level Estimated

Login

Don't have an account? Register now (free) for customized features, flight alerts, and more!